Date,TemperatureHighF,TemperatureAvgF,TemperatureLowF,DewpointHighF,DewpointAvgF,DewpointLowF,HumidityHigh,HumidityAvg,HumidityLow,PressureMaxIn,PressureMinIn,WindSpeedMaxMPH,WindSpeedAvgMPH,GustSpeedMaxMPH,PrecipitationSumIn
2013-1-1,19.7,5.7,-8.2,15.1,-0.8,-14.2,82,74,59,30.30,30.01,8,1,18,0.00
2013-1-2,21.6,18.2,15.2,18.1,14.3,11.7,87,84,81,30.06,29.94,9,2,15,0.00
2013-1-3,21.1,14.4,11.4,16.8,7.8,2.8,83,75,61,30.25,30.06,15,4,19,0.00
2013-1-4,31.2,21.2,12.6,16.8,13.1,8.2,82,71,52,30.10,29.98,20,2,20,0.00
2013-1-5,25.6,16.9,10.2,14.4,10.5,6.3,86,76,58,30.07,29.83,5,1,14,0.00
2013-1-6,23.3,16.8,10.4,14.4,9.2,3.5,83,72,56,30.21,29.99,12,2,16,0.00
2013-1-7,39.3,29.5,17.2,24.8,20.9,11.2,81,70,54,29.97,29.84,18,4,25,0.01
2013-1-8,34.9,27.1,14.8,27.9,21.3,11.2,89,79,66,29.93,29.72,13,3,20,0.00
2013-1-9,34.1,31.7,29.1,26.6,21.8,19.1,81,67,56,30.31,29.84,24,8,29,0.00
2013-1-10,41.5,35.1,27.2,32.3,23.7,19.7,92,64,45,30.26,29.68,15,4,18,0.24
2013-1-11,40.9,37.1,34.6,39.6,35.7,32.5,95,94,92,29.67,29.29,11,3,17,0.05
2013-1-12,38.3,16.5,4.3,37.0,9.0,-3.5,95,72,60,30.08,29.31,20,8,31,0.00
2013-1-13,8.1,4.7,0.9,0.2,-2.7,-6.3,74,71,67,30.24,30.06,12,4,14,0.00
2013-1-14,11.7,7.7,3.4,3.4,0.0,-2.7,78,71,58,30.42,30.24,9,1,12,0.00
2013-1-15,29.7,19.9,6.7,16.2,10.0,1.8,83,66,43,30.27,29.78,7,1,16,0.00
2013-1-16,35.5,26.0,11.9,31.1,15.4,-5.7,89,65,39,30.20,29.60,19,4,25,0.02
2013-1-17,18.1,12.7,6.5,8.5,0.6,-6.9,71,58,46,30.40,30.22,12,2,14,0.00
2013-1-18,41.6,28.1,16.9,28.9,20.9,8.5,85,74,59,30.28,29.68,11,2,17,0.01
2013-1-19,38.0,22.9,1.8,29.5,16.0,-8.0,91,75,53,30.20,29.62,29,7,40,0.00
2013-1-20,7.7,1.5,-2.6,-2.6,-8.7,-14.1,68,61,50,30.43,30.21,21,7,21,0.00
2013-1-21,-2.6,-6.9,-11.0,-13.9,-18.1,-23.1,65,57,50,30.39,30.29,16,7,21,0.00
2013-1-22,4.7,-4.6,-12.8,-6.1,-15.4,-21.8,64,59,50,30.45,30.26,10,2,11,0.00
2013-1-23,15.9,6.1,-5.9,5.6,-5.4,-19.7,78,59,42,30.64,30.16,20,5,31,0.00
2013-1-24,12.8,1.5,-7.5,-0.5,-11.1,-20.1,58,55,50,30.72,30.17,12,1,17,0.00
2013-1-25,18.1,12.8,3.5,9.3,2.1,-5.6,71,62,53,30.32,29.92,23,6,26,0.00
2013-1-26,24.1,12.0,-1.0,10.7,1.2,-7.6,77,62,47,30.36,30.09,9,1,14,0.00
2013-1-27,33.1,29.0,23.8,29.0,20.7,10.5,92,72,55,30.09,29.75,11,2,15,0.00
2013-1-28,35.2,31.8,29.4,33.2,29.9,27.6,94,92,90,29.85,29.58,7,1,12,0.20
2013-1-29,35.3,31.9,27.2,31.9,27.9,19.7,94,85,73,29.70,29.47,13,3,19,0.09
2013-1-30,27.0,17.1,7.2,19.5,9.1,-1.1,76,70,63,29.75,29.62,21,8,25,0.00
2013-1-31,7.0,1.2,-7.7,-0.9,-8.3,-18.2,71,63,57,30.30,29.75,20,9,27,0.00
2013-2-1,3.9,-4.1,-12.8,-3.2,-14.0,-21.5,76,62,41,30.35,30.08,13,2,13,0.00
2013-2-2,12.6,5.4,-0.2,4.8,-2.6,-7.1,80,69,52,30.20,29.98,5,0,9,0.00
2013-2-3,14.6,9.4,2.4,5.3,1.6,-4.0,80,70,59,30.09,29.97,11,2,17,0.00
2013-2-4,15.6,9.6,0.7,9.8,-0.2,-6.8,82,64,51,30.08,29.73,11,0,15,0.00
2013-2-5,28.1,20.5,3.9,23.0,13.3,-1.1,87,74,51,30.06,29.62,10,2,22,0.04
2013-2-6,25.1,15.8,2.2,20.4,10.6,-2.8,83,80,75,30.09,29.92,9,1,11,0.00
2013-2-7,27.3,25.3,23.5,22.1,20.3,19.2,89,81,72,30.23,29.97,12,3,15,0.00
2013-2-8,28.8,21.4,6.5,19.2,12.9,1.6,85,70,50,30.36,30.18,10,2,15,0.05
2013-2-9,31.9,28.6,24.4,27.5,23.9,19.1,88,82,78,30.18,29.89,17,6,22,0.00
2013-2-10,32.8,30.1,27.6,31.3,27.4,23.9,94,89,82,29.90,29.23,12,4,19,0.00
2013-2-11,29.8,24.9,15.7,28.3,18.9,9.5,94,78,67,30.01,29.29,29,9,29,0.00
2013-2-12,35.5,24.4,12.4,22.5,16.6,7.4,82,73,56,30.01,29.76,11,1,14,0.18
2013-2-13,41.2,29.6,21.0,30.7,23.5,15.9,93,78,56,29.76,29.51,7,1,13,0.16
2013-2-14,32.5,24.8,12.6,30.7,16.4,1.8,93,72,38,30.15,29.53,15,2,22,0.11
2013-2-15,17.7,10.6,3.0,2.9,0.2,-4.3,75,62,48,30.30,30.16,13,3,18,0.00
2013-2-16,20.5,9.4,0.7,5.3,0.6,-5.8,79,68,50,30.26,30.10,5,0,6,0.00
2013-2-17,31.8,21.5,5.8,20.2,12.7,0.3,80,69,58,30.10,29.58,17,5,23,0.00
2013-2-18,33.1,23.0,8.6,28.8,16.2,1.1,84,75,67,29.78,29.46,26,6,28,0.01
2013-2-19,8.6,5.7,0.1,1.1,-4.5,-9.9,72,62,52,30.38,29.79,21,10,27,0.00
2013-2-20,16.2,4.3,-7.7,0.6,-6.0,-14.4,74,62,48,30.49,30.38,5,0,9,0.00
2013-2-21,22.4,13.6,1.1,14.3,3.7,-5.1,80,65,50,30.46,30.08,12,1,13,0.00
2013-2-22,27.6,23.3,19.9,20.8,18.2,14.1,87,81,71,30.08,29.83,6,1,10,0.00
2013-2-23,35.5,25.2,18.4,24.1,19.2,14.6,87,78,61,29.92,29.80,6,1,10,0.10
2013-2-24,34.7,18.9,7.7,21.0,12.9,3.6,87,77,56,30.08,29.92,3,0,5,0.04
2013-2-25,37.3,27.0,16.5,22.2,19.0,12.2,85,72,54,30.08,30.00,5,0,7,0.00
2013-2-26,35.5,25.2,12.3,25.8,18.8,8.4,88,77,66,30.03,29.85,10,2,14,0.01
2013-2-27,39.2,31.6,26.7,24.5,23.1,20.1,81,71,51,29.99,29.83,15,4,21,0.00
2013-2-28,30.4,28.2,23.5,21.3,18.9,14.5,77,68,62,30.20,29.99,11,3,14,0.00
2013-3-1,29.3,24.3,15.4,16.1,14.0,8.9,75,65,55,30.34,30.20,11,3,18,0.00
2013-3-2,31.5,20.7,4.7,10.2,6.3,0.2,83,57,34,30.35,30.18,4,0,5,0.00
2013-3-3,33.8,26.9,16.5,10.9,8.6,5.5,69,47,33,30.13,29.94,14,3,16,0.00
2013-3-4,27.6,25.1,22.9,21.4,15.8,5.3,88,69,38,30.01,29.91,15,4,18,0.00
2013-3-5,29.4,25.3,21.8,24.8,21.2,16.7,89,85,76,30.27,29.94,10,3,15,0.00
2013-3-6,27.5,21.0,8.3,18.6,14.1,3.5,82,75,64,30.40,30.27,11,1,12,0.06
2013-3-7,33.4,20.6,4.1,17.6,11.1,-0.4,86,68,50,30.38,30.25,12,2,14,0.10
2013-3-8,39.3,30.8,20.6,28.4,22.7,15.8,83,72,59,30.28,30.03,11,3,17,0.22
2013-3-9,37.2,35.4,33.4,35.4,32.8,27.4,94,90,72,30.03,29.65,13,2,17,0.43
2013-3-10,34.6,32.7,28.7,33.0,27.5,22.1,94,81,74,29.92,29.74,17,6,22,0.01
2013-3-11,30.4,27.0,20.6,22.1,19.9,14.6,80,74,65,29.83,29.71,17,4,18,0.00
2013-3-12,29.5,24.6,18.6,17.3,13.5,8.6,77,63,44,30.18,29.79,18,6,26,0.00
2013-3-13,32.7,22.0,11.7,17.2,11.3,7.0,82,65,39,30.36,30.18,7,1,12,0.83
2013-3-14,41.8,31.5,24.2,27.6,22.8,16.0,86,71,53,30.19,29.95,8,1,13,0.08
2013-3-15,33.8,30.2,22.2,30.4,26.1,18.7,91,85,78,29.95,29.80,10,2,15,0.10
2013-3-16,25.4,19.4,10.2,18.7,10.3,0.1,86,68,50,30.25,29.89,15,4,19,0.09
2013-3-17,28.7,18.0,3.9,18.7,4.6,-4.3,69,56,40,30.26,29.79,13,3,16,0.00
2013-3-18,28.8,21.5,10.4,26.5,14.9,2.3,91,76,65,29.80,29.55,25,10,30,0.02
2013-3-19,21.6,12.4,5.2,5.8,0.2,-4.8,71,58,40,30.19,29.80,21,11,25,0.05
2013-3-20,21.0,12.3,4.8,3.0,-1.5,-5.7,62,54,42,30.21,30.11,17,7,23,0.00
2013-3-21,26.9,13.8,0.3,9.1,2.3,-6.1,78,61,44,30.13,30.04,6,0,10,0.02
2013-3-22,35.8,21.5,5.6,15.6,9.1,0.6,83,61,36,30.08,30.01,5,0,8,0.06
2013-3-23,38.9,28.0,14.3,19.5,15.2,8.7,81,60,37,30.12,30.04,7,1,10,0.01
2013-3-24,33.1,29.3,27.3,24.6,20.9,18.0,84,71,59,30.05,29.94,13,2,15,0.00
2013-3-25,37.0,30.1,21.9,20.7,17.3,13.3,73,59,42,30.18,30.01,16,4,21,0.00
2013-3-26,40.1,31.5,25.0,22.5,19.7,17.3,75,62,40,30.26,30.18,11,1,12,0.00
2013-3-27,43.9,32.0,21.1,19.6,17.9,14.3,78,58,32,30.30,30.25,10,0,10,0.00
2013-3-28,46.8,33.2,18.8,25.0,19.6,14.9,87,61,30,30.31,30.23,9,0,11,0.00
2013-3-29,52.2,39.3,27.0,35.2,29.4,21.7,82,68,46,30.23,29.98,12,2,17,0.00
2013-3-30,53.2,42.8,34.1,41.7,36.9,29.7,93,80,61,29.97,29.78,14,2,16,0.56
2013-3-31,39.1,32.8,22.2,30.7,21.8,11.4,88,66,37,30.07,29.74,23,7,31,0.00
2013-4-1,33.7,25.0,16.9,16.7,12.7,9.4,73,60,38,30.24,30.08,17,6,22,0.00
2013-4-2,36.5,26.7,18.3,16.1,13.3,6.7,79,59,30,30.33,30.22,16,2,19,0.00
2013-4-3,46.4,33.9,16.7,30.4,19.8,11.6,85,59,29,30.36,29.97,20,3,28,0.00
2013-4-4,49.9,41.9,28.4,32.9,26.5,19.3,77,56,35,30.14,29.92,21,3,23,0.00
2013-4-5,44.1,33.4,21.9,31.5,22.9,14.5,89,68,31,30.21,29.82,15,2,15,0.06
2013-4-6,51.4,40.7,36.5,41.9,32.7,26.5,90,74,51,29.80,29.45,16,4,23,0.30
2013-4-7,49.9,40.3,33.7,37.8,32.5,29.0,89,74,52,29.89,29.71,9,1,13,0.16
2013-4-8,44.2,40.9,39.2,40.1,37.9,34.9,95,89,83,30.01,29.62,9,2,13,0.70
2013-4-9,43.9,38.1,33.5,34.9,29.0,22.4,83,71,53,30.13,29.93,16,6,23,0.06
2013-4-10,39.9,35.0,30.3,29.4,24.3,20.7,89,66,46,30.16,29.88,15,4,21,0.06
2013-4-11,36.0,32.9,29.5,31.2,27.8,19.6,92,83,51,29.88,29.65,15,5,24,0.30
2013-4-12,36.3,30.8,27.3,28.8,26.5,24.5,92,84,67,29.80,29.64,10,1,12,0.27
2013-4-13,36.2,31.7,26.0,26.8,24.4,20.8,89,75,62,29.92,29.78,11,1,14,0.17
2013-4-14,36.3,31.5,25.4,34.5,26.8,20.6,93,83,68,29.91,29.45,16,2,24,0.36
2013-4-15,39.9,35.8,32.2,34.1,28.1,24.7,92,74,63,29.92,29.46,23,5,26,0.13
2013-4-16,43.8,37.3,33.1,28.5,26.5,25.0,77,65,50,30.28,29.91,22,2,24,0.00
2013-4-17,40.9,36.3,32.2,33.2,28.4,25.0,92,73,63,30.28,29.89,15,3,22,0.09
2013-4-18,34.3,32.1,31.0,32.0,30.0,28.9,94,92,88,29.90,29.47,15,5,21,0.13
2013-4-19,36.8,31.8,26.9,29.5,24.7,14.5,94,77,51,29.95,29.43,21,6,29,0.40
2013-4-20,42.5,31.0,15.2,20.1,13.1,6.7,82,50,23,30.26,29.96,5,0,7,0.13
2013-4-21,48.3,39.7,32.4,44.6,33.5,16.9,91,79,50,30.26,29.95,18,4,24,0.14
2013-4-22,43.9,37.1,31.9,36.0,30.5,26.7,94,78,55,30.17,30.07,14,3,22,0.02
2013-4-23,41.8,34.1,26.6,30.3,24.8,17.5,94,71,41,30.13,30.02,14,2,20,0.32
2013-4-24,52.9,37.4,25.7,33.6,26.4,20.1,85,68,30,30.03,29.85,22,4,30,0.00
2013-4-25,51.0,41.3,30.6,31.8,27.1,20.5,87,61,30,30.15,29.91,15,3,23,0.00
2013-4-26,72.1,58.5,45.7,43.1,36.6,27.4,67,46,27,30.05,29.88,23,4,23,0.00
2013-4-27,76.5,59.1,35.8,45.5,34.9,29.6,83,46,18,30.06,29.78,15,1,17,0.00
2013-4-28,80.5,65.0,52.6,52.2,45.7,42.3,86,53,27,29.78,29.53,21,5,25,0.07
2013-4-29,76.3,62.1,47.4,55.9,42.8,33.4,89,53,27,29.73,29.44,11,1,14,0.00
2013-4-30,70.4,64.5,55.6,57.8,44.5,27.2,77,51,23,29.86,29.28,19,5,25,0.00
2013-5-1,55.4,41.7,33.7,38.4,31.7,25.6,92,69,44,30.43,29.89,14,2,18,0.30
2013-5-2,46.4,39.8,35.3,27.6,25.8,23.9,70,58,43,30.50,30.38,18,4,22,0.00
2013-5-3,36.6,33.8,31.3,32.4,28.0,22.8,89,79,60,30.37,30.13,17,2,18,0.10
2013-5-4,47.4,38.7,32.5,40.3,34.5,29.4,92,85,75,30.13,30.08,9,1,15,0.04
2013-5-5,66.0,50.2,37.3,47.9,40.5,33.5,87,71,50,30.13,30.00,5,1,11,0.00
2013-5-6,75.8,58.6,39.9,48.7,42.6,37.4,93,60,28,30.04,29.92,5,1,9,0.00
2013-5-7,80.3,69.6,47.7,50.2,44.5,39.3,89,44,24,29.98,29.86,10,1,14,0.00
2013-5-8,77.7,64.6,55.1,56.0,50.2,42.2,89,62,30,29.92,29.85,7,1,15,0.11
2013-5-9,57.8,52.4,42.5,54.6,45.4,27.3,89,77,54,30.05,29.87,11,3,20,0.04
2013-5-10,66.6,51.2,34.4,41.5,27.1,19.4,74,44,17,30.08,29.78,6,1,11,0.01
2013-5-11,56.9,46.4,37.8,40.2,25.3,18.1,63,45,28,30.12,29.78,31,9,33,0.00
2013-5-12,57.6,44.2,30.0,24.1,20.3,13.4,70,42,19,30.17,30.01,17,2,18,0.00
2013-5-13,70.6,53.3,30.6,46.5,32.7,22.8,84,49,27,30.05,29.55,20,3,23,0.02
2013-5-14,96.3,72.8,46.2,51.7,44.0,27.8,89,43,12,29.58,29.34,26,4,32,0.00
2013-5-15,79.9,68.2,50.4,48.0,44.5,39.8,76,45,24,29.82,29.57,12,2,25,0.00
2013-5-16,83.6,69.3,49.1,49.7,41.6,25.4,85,42,20,29.82,29.71,15,2,20,0.00
2013-5-17,67.8,59.5,55.7,55.1,49.0,26.5,90,72,21,29.91,29.79,11,2,15,0.06
2013-5-18,80.5,65.7,55.0,65.1,58.5,52.4,95,79,54,29.91,29.70,11,3,19,0.77
2013-5-19,83.0,69.0,63.4,65.4,62.6,60.8,93,81,52,29.69,29.46,17,2,26,0.79
2013-5-20,72.3,66.3,61.6,62.1,59.0,55.4,95,78,59,29.47,29.41,15,2,22,0.25
2013-5-21,61.5,53.2,46.0,58.2,51.3,44.1,95,93,89,29.66,29.42,0,0,0,0.10
2013-5-22,52.5,48.4,43.9,47.6,44.7,42.0,94,87,71,29.93,29.64,9,0,17,0.04
2013-5-23,63.4,52.1,42.9,42.3,34.2,24.6,84,54,25,30.27,29.93,9,0,15,0.00
2013-5-24,69.6,55.2,34.3,51.8,37.8,29.2,89,56,29,30.33,30.11,3,0,13,0.19
2013-5-25,64.2,57.7,52.5,51.5,47.7,42.6,92,70,47,30.18,30.13,13,1,20,0.04
2013-5-26,59.2,56.6,52.0,46.2,41.9,35.0,69,58,41,30.15,29.96,14,2,19,0.00
2013-5-27,61.0,57.8,54.5,53.4,49.7,45.7,91,74,63,29.97,29.76,13,3,18,0.00
2013-5-28,59.5,56.8,53.8,55.7,53.0,50.1,90,87,84,29.75,29.63,6,1,12,0.03
2013-5-29,76.5,66.4,55.6,68.2,60.2,53.0,92,81,64,29.74,29.54,12,2,17,0.14
2013-5-30,78.3,69.0,64.0,64.9,62.0,59.5,94,80,54,29.57,29.41,16,4,27,0.25
2013-5-31,78.5,68.7,61.3,61.0,55.8,50.0,94,66,42,29.45,29.39,20,3,28,0.33
2013-6-1,73.7,60.5,51.4,60.6,51.8,42.8,89,74,52,29.85,29.44,16,2,25,0.08
2013-6-2,68.1,56.5,48.2,43.2,40.7,37.8,73,57,35,30.01,29.85,13,1,18,0.00
2013-6-3,69.6,58.3,43.8,47.7,42.8,38.3,91,60,34,29.98,29.87,5,0,10,0.00
2013-6-4,63.5,59.5,54.4,52.9,48.6,40.2,89,68,49,30.01,29.88,10,2,18,0.03
2013-6-5,58.7,54.6,49.8,55.7,52.3,47.9,94,92,89,29.97,29.87,11,1,13,0.11
2013-6-6,56.3,52.8,49.2,51.0,49.6,47.5,95,89,81,29.96,29.90,6,1,12,0.00
2013-6-7,64.0,57.6,52.0,52.4,50.6,48.9,90,78,60,29.98,29.84,4,0,7,0.00
2013-6-8,72.0,63.6,51.4,55.8,52.5,48.8,93,69,50,29.84,29.79,13,2,14,0.00
2013-6-9,64.3,59.9,56.5,60.4,56.0,52.4,93,87,68,29.80,29.69,12,2,18,0.34
2013-6-10,75.8,65.2,58.6,62.1,59.3,56.6,95,83,58,29.76,29.71,7,0,12,0.00
2013-6-11,75.8,66.3,53.9,66.6,61.3,51.9,95,84,68,29.80,29.72,4,0,10,0.01
2013-6-12,74.4,65.1,59.0,66.1,58.6,50.9,95,81,57,29.84,29.67,14,1,19,1.66
2013-6-13,77.0,67.1,55.9,56.9,52.8,49.2,79,61,46,30.00,29.85,9,1,13,0.00
2013-6-14,78.6,69.3,55.4,61.7,55.9,49.7,84,63,50,29.99,29.76,13,3,21,0.01
2013-6-15,77.0,69.2,62.3,67.3,63.6,59.6,92,83,71,29.82,29.74,12,1,16,0.62
2013-6-16,85.9,69.5,52.9,59.5,52.5,42.5,94,62,22,29.83,29.74,29,1,31,0.00
2013-6-17,82.4,69.4,58.3,59.9,55.5,50.9,88,63,35,29.93,29.75,13,1,18,0.03
2013-6-18,74.7,64.7,51.3,58.8,52.8,44.0,79,66,50,30.01,29.92,7,1,11,0.00
2013-6-19,86.1,73.1,56.6,63.0,57.1,51.8,87,60,35,29.97,29.83,10,1,14,0.00
2013-6-20,89.7,79.8,70.3,67.0,62.0,58.6,74,56,39,29.89,29.75,13,2,19,0.00
2013-6-21,81.1,71.7,64.2,68.0,64.5,60.3,94,80,54,30.00,29.58,26,1,38,2.90
2013-6-22,79.4,70.9,65.8,69.0,65.7,40.4,94,84,39,29.88,29.73,3,0,20,0.35
2013-6-23,84.9,75.2,69.1,69.6,66.1,62.1,93,75,49,29.77,29.57,13,2,22,0.71
2013-6-24,83.8,73.0,62.1,69.7,64.6,59.6,93,76,53,29.80,29.69,10,0,14,0.00
2013-6-25,86.1,75.7,64.2,71.4,66.3,60.5,90,74,53,29.72,29.59,12,1,16,0.00
2013-6-26,88.4,79.0,72.8,75.7,69.5,63.2,92,74,51,29.69,29.53,15,2,19,0.31
2013-6-27,87.0,77.2,67.1,65.5,59.9,51.8,89,59,31,29.70,29.66,22,4,30,0.00
2013-6-28,78.5,70.6,65.2,63.8,59.8,56.0,88,69,52,29.70,29.64,22,4,26,0.07
2013-6-29,75.8,68.0,61.6,62.8,56.9,48.1,94,70,40,29.89,29.65,7,0,17,0.39
2013-6-30,80.5,68.1,54.5,56.7,52.4,48.2,90,61,34,30.02,29.90,3,0,13,0.00
2013-7-1,83.0,70.8,57.5,60.9,55.3,48.9,92,62,32,30.09,30.02,6,0,12,0.00
2013-7-2,82.0,69.5,56.3,57.0,53.2,48.3,86,60,33,30.07,29.95,7,0,10,0.00
2013-7-3,86.1,71.3,56.2,59.7,52.1,45.5,93,56,26,29.97,29.84,9,0,11,0.00
2013-7-4,90.3,77.4,63.5,61.9,55.7,50.0,76,50,27,29.86,29.74,10,1,20,0.00
2013-7-5,88.4,80.5,71.1,62.7,59.5,54.7,63,49,35,29.77,29.68,14,2,25,0.00
2013-7-6,90.7,80.7,74.0,66.0,62.2,60.1,64,54,41,29.75,29.67,13,1,15,0.00
2013-7-7,92.5,80.6,69.3,70.7,66.6,61.7,92,64,44,29.77,29.69,10,0,13,0.16
2013-7-8,83.2,70.5,61.8,70.1,65.1,60.1,95,84,56,29.91,29.77,8,0,10,0.00
2013-7-9,85.3,76.8,68.9,71.1,67.9,63.3,93,75,55,29.86,29.63,14,2,24,0.64
2013-7-10,80.3,71.6,60.7,63.4,56.1,52.0,83,60,38,29.94,29.81,16,2,19,0.00
2013-7-11,86.7,73.8,58.0,62.9,56.0,52.3,92,58,31,30.01,29.86,7,0,15,0.00
2013-7-12,90.3,78.7,70.3,61.5,58.3,54.6,65,50,33,29.90,29.77,13,2,22,0.00
2013-7-13,81.6,74.0,66.9,71.4,64.4,55.0,95,73,52,29.95,29.80,13,2,22,2.15
2013-7-14,87.0,77.0,70.8,66.0,63.5,59.8,77,64,45,30.07,29.95,9,1,16,0.00
2013-7-15,90.1,79.1,67.1,67.6,65.0,61.4,90,64,40,30.12,30.04,10,0,13,0.00
2013-7-16,93.4,83.8,76.0,71.5,69.8,66.9,82,64,43,30.08,30.03,11,1,16,0.00
2013-7-17,94.7,83.6,72.0,70.9,68.6,66.4,87,63,40,30.12,29.98,12,1,15,0.00
2013-7-18,94.0,85.6,77.4,71.5,69.8,67.7,77,60,43,29.98,29.62,18,2,23,0.00
2013-7-19,84.5,80.1,73.0,69.8,63.2,56.5,77,57,39,29.77,29.58,19,2,24,0.02
2013-7-20,78.5,70.5,63.5,63.8,59.1,55.1,89,69,47,29.86,29.75,9,0,11,0.00
2013-7-21,80.7,69.4,58.9,67.3,59.3,47.3,92,71,56,29.86,29.70,10,1,12,0.14
2013-7-22,86.7,74.7,66.9,70.9,63.2,55.1,86,69,43,29.74,29.56,21,2,25,0.00
2013-7-23,74.9,67.3,59.3,55.6,52.8,49.8,83,61,43,29.93,29.75,9,0,16,0.00
2013-7-24,75.3,66.0,57.3,58.3,54.6,51.0,84,67,49,29.99,29.87,5,0,10,0.00
2013-7-25,80.5,72.1,63.2,63.0,60.0,56.4,83,67,45,29.87,29.80,11,1,19,0.00
2013-7-26,72.3,64.3,56.6,62.0,54.1,45.8,81,69,56,30.00,29.79,18,4,28,0.04
2013-7-27,61.5,56.1,51.9,52.6,47.9,44.5,85,74,57,30.00,29.86,21,2,23,0.10
2013-7-28,71.5,59.7,51.1,53.5,49.2,45.3,84,69,47,29.98,29.89,9,1,15,0.01
2013-7-29,80.5,65.8,50.7,61.0,52.7,48.2,93,66,38,30.04,29.97,7,0,12,0.02
2013-7-30,70.3,66.0,62.0,63.2,61.7,59.4,94,86,77,30.01,29.96,3,0,7,0.17
2013-7-31,80.5,68.8,59.8,64.9,57.9,48.4,93,72,36,29.97,29.88,17,2,23,0.00
2013-8-1,81.2,68.2,53.2,58.8,53.8,49.8,90,63,37,29.94,29.76,10,0,17,0.00
2013-8-2,76.1,67.2,56.6,58.4,52.9,47.3,88,63,37,29.95,29.74,12,1,15,0.00
2013-8-3,77.2,64.0,51.4,55.5,50.4,46.2,93,65,36,30.10,29.95,9,1,13,0.00
2013-8-4,78.8,64.0,51.0,55.8,51.7,47.7,91,67,36,30.15,29.92,7,0,11,0.00
2013-8-5,80.9,69.5,61.6,68.5,62.0,55.0,94,78,57,29.92,29.68,12,1,18,0.59
2013-8-6,85.9,68.9,56.3,67.4,60.0,53.7,93,75,48,29.74,29.59,16,1,24,0.09
2013-8-7,75.3,65.6,58.7,59.6,54.4,47.4,94,70,39,29.94,29.69,12,0,16,0.01
2013-8-8,78.6,65.5,54.8,60.2,55.9,52.1,92,73,45,29.96,29.89,2,0,15,0.01
2013-8-9,76.0,67.4,57.3,59.3,53.9,48.0,92,65,39,30.03,29.89,16,1,21,0.00
2013-8-10,74.4,65.9,54.8,56.5,53.0,49.1,89,65,44,30.10,30.00,9,0,11,0.00
2013-8-11,79.0,68.6,61.5,63.3,60.0,55.6,89,75,52,30.00,29.90,4,0,7,0.01
2013-8-12,79.9,69.3,58.7,62.8,55.8,50.5,91,65,37,29.97,29.90,11,1,17,0.00
2013-8-13,74.7,64.1,53.3,56.1,49.3,39.5,92,63,30,30.11,29.98,10,0,13,0.00
2013-8-14,78.3,63.7,51.4,55.8,50.6,48.0,92,66,37,30.11,30.00,9,0,15,0.00
2013-8-15,82.6,65.3,51.9,59.8,54.2,49.1,92,70,35,30.04,29.98,6,0,12,0.00
2013-8-16,81.8,69.6,58.1,58.8,55.1,51.3,89,62,39,30.09,30.02,9,0,15,0.00
2013-8-17,84.5,69.6,55.9,57.8,54.4,51.6,92,62,34,30.11,30.00,10,1,19,0.00
2013-8-18,84.5,72.5,60.7,58.1,55.9,53.7,82,58,37,30.04,29.89,15,1,20,0.00
2013-8-19,88.4,76.7,67.8,67.6,62.9,57.4,74,63,46,29.91,29.78,10,1,16,0.00
2013-8-20,91.2,80.4,70.9,71.5,68.1,64.4,81,67,51,29.80,29.73,14,1,18,0.00
2013-8-21,85.3,79.1,72.7,74.1,69.0,60.4,84,72,47,29.89,29.70,8,0,13,0.00
2013-8-22,84.3,73.4,64.0,60.3,51.8,45.7,74,49,28,30.04,29.88,8,0,13,0.00
2013-8-23,88.4,73.0,55.6,65.8,57.6,49.8,87,61,36,30.06,29.92,7,1,16,0.00
2013-8-24,91.4,80.1,71.1,71.0,67.2,63.5,77,66,48,29.96,29.80,17,3,26,0.00
2013-8-25,96.8,86.0,79.0,73.8,71.2,68.9,72,62,45,29.88,29.79,11,1,21,0.00
2013-8-26,96.1,86.2,78.3,74.6,73.0,71.3,82,66,46,29.85,29.70,12,1,18,0.00
2013-8-27,91.2,83.6,75.1,76.4,73.2,69.6,83,71,60,29.80,29.65,9,0,13,0.00
2013-8-28,90.1,77.7,68.9,72.2,67.5,62.2,94,73,41,29.90,29.79,8,0,11,0.00
2013-8-29,94.5,81.0,72.5,75.8,70.7,63.3,93,74,37,29.89,29.71,10,1,17,0.16
2013-8-30,81.8,76.0,69.9,71.1,65.5,61.6,87,71,55,29.83,29.69,9,0,14,0.00
2013-8-31,90.7,74.3,62.4,68.0,63.8,59.6,92,73,42,29.80,29.60,18,1,27,0.19
2013-9-1,72.0,67.9,61.0,64.0,58.6,52.3,87,73,61,29.89,29.60,17,2,21,0.00
2013-9-2,65.6,59.0,52.9,52.7,50.9,48.9,88,75,62,30.01,29.89,6,0,12,0.00
2013-9-3,79.2,62.6,47.0,58.6,53.0,44.8,94,74,45,30.02,29.90,6,0,7,0.00
2013-9-4,83.6,69.0,57.0,64.6,59.4,54.4,93,74,49,30.05,29.91,6,0,11,0.00
2013-9-5,84.9,72.0,59.2,64.9,58.8,51.5,84,65,44,30.13,29.99,7,1,11,0.00
2013-9-6,91.8,80.1,70.9,68.1,65.2,60.7,87,63,37,29.99,29.74,12,1,20,0.00
2013-9-7,90.1,79.2,68.3,69.3,65.6,58.9,90,65,44,29.92,29.73,13,1,15,0.00
2013-9-8,74.6,67.8,63.5,64.1,57.9,51.0,80,71,61,29.96,29.78,10,1,13,0.00
2013-9-9,91.6,77.4,69.6,72.4,68.1,63.6,89,75,48,29.78,29.50,10,1,16,0.01
2013-9-10,80.3,73.4,66.9,70.5,63.5,56.9,87,72,45,29.88,29.64,10,0,15,0.02
2013-9-11,83.4,71.7,60.5,62.2,55.1,45.8,92,60,27,29.95,29.88,12,1,24,0.00
2013-9-12,71.8,62.8,52.8,55.0,48.5,43.0,87,62,37,30.15,29.95,14,1,21,0.00
2013-9-13,71.5,56.2,42.8,48.6,43.9,39.8,92,67,35,30.21,30.00,1,0,2,0.00
2013-9-14,72.7,59.2,48.3,57.9,49.0,43.6,93,71,41,30.00,29.82,9,0,13,0.40
2013-9-15,63.2,57.7,47.6,56.6,53.0,43.6,95,85,63,30.25,29.80,9,0,13,0.19
2013-9-16,68.4,52.9,38.2,45.2,39.0,29.3,94,64,27,30.34,30.17,6,0,13,0.00
2013-9-17,69.8,58.0,47.3,56.9,49.0,41.3,92,73,55,30.18,29.85,11,2,24,0.00
2013-9-18,73.5,66.9,59.2,68.3,63.6,56.9,95,90,78,29.85,29.58,10,2,14,0.01
2013-9-19,76.8,70.6,63.5,69.4,65.5,56.2,94,84,66,29.69,29.53,19,1,25,0.23
2013-9-20,65.0,58.7,50.2,55.7,50.9,46.5,88,76,53,29.85,29.69,14,2,25,0.02
2013-9-21,63.7,52.7,45.8,47.3,45.5,42.8,91,78,53,29.93,29.83,8,1,11,0.00
2013-9-22,73.0,57.8,43.5,55.0,48.7,41.3,92,74,50,29.91,29.76,17,2,20,0.00
2013-9-23,74.9,63.6,55.0,54.0,50.6,47.7,77,64,44,29.86,29.78,16,3,20,0.00
2013-9-24,77.2,63.2,52.8,54.3,51.1,47.9,85,66,40,29.88,29.82,10,1,16,0.00
2013-9-25,75.8,60.7,47.7,55.7,50.4,45.5,94,72,44,29.89,29.79,9,1,19,0.00
2013-9-26,81.4,68.2,57.6,60.4,55.2,50.3,78,65,45,29.84,29.72,16,3,24,0.00
2013-9-27,83.8,73.9,66.4,63.8,60.0,58.4,76,63,44,29.81,29.68,22,2,27,0.00
2013-9-28,74.7,61.3,46.5,62.7,53.3,42.8,91,76,58,29.86,29.52,13,2,21,0.22
2013-9-29,77.0,60.1,42.3,48.2,43.7,39.3,91,60,29,29.89,29.68,8,0,18,0.00
2013-9-30,78.8,68.4,59.3,52.3,48.9,44.8,64,50,37,29.68,29.49,13,2,20,0.00
2013-10-1,75.4,66.0,47.9,52.5,43.2,31.5,77,47,21,29.89,29.47,23,2,25,0.00
2013-10-2,75.3,57.1,41.3,54.6,42.4,33.3,93,66,22,29.97,29.75,13,1,17,0.71
2013-10-3,58.1,56.2,54.2,57.0,54.6,52.4,96,94,92,29.86,29.75,5,0,12,0.17
2013-10-4,58.7,56.1,53.9,55.5,53.1,52.1,95,90,81,29.91,29.78,16,3,19,0.11
2013-10-5,59.3,54.4,42.6,57.9,51.6,39.9,95,90,76,29.81,29.65,12,1,22,0.11
2013-10-6,52.2,46.5,40.6,50.0,44.3,38.2,94,92,86,29.77,29.61,12,1,15,0.06
2013-10-7,65.3,50.6,40.2,48.5,42.3,38.4,95,77,39,29.91,29.75,9,1,14,0.00
2013-10-8,76.8,62.5,46.8,48.0,44.3,41.4,86,54,31,29.89,29.71,14,3,26,0.00
2013-10-9,77.0,66.0,59.3,52.5,48.9,46.4,66,55,39,29.94,29.81,13,2,21,0.00
2013-10-10,78.8,63.9,53.6,53.8,48.3,44.8,74,58,37,29.94,29.78,14,2,22,0.00
2013-10-11,74.4,66.3,58.0,60.9,53.5,50.1,88,64,47,29.78,29.52,18,3,29,0.10
2013-10-12,61.8,50.7,44.3,58.2,43.1,39.8,88,75,59,30.10,29.58,12,1,27,0.01
2013-10-13,58.6,46.9,33.8,41.2,36.2,30.6,92,69,39,30.36,30.10,0,0,2,0.00
2013-10-14,53.9,47.0,36.9,46.1,39.0,34.2,92,75,53,30.34,29.91,9,0,17,0.30
2013-10-15,53.5,50.0,45.4,52.1,48.5,44.0,95,94,91,29.90,29.59,15,1,19,0.77
2013-10-16,53.3,45.7,36.5,44.0,39.2,32.8,95,79,50,29.88,29.76,11,2,16,0.01
2013-10-17,56.9,45.4,36.2,45.2,39.9,32.7,93,82,54,29.81,29.70,10,1,18,0.44
2013-10-18,52.2,43.5,37.0,40.2,34.9,28.5,93,74,41,29.91,29.77,11,2,19,0.15
2013-10-19,44.9,40.0,32.7,39.6,35.0,28.8,89,82,75,29.77,29.62,10,1,18,0.06
2013-10-20,42.2,35.5,30.3,38.9,32.8,27.5,92,89,83,29.82,29.57,10,1,16,0.11
2013-10-21,38.3,34.6,29.1,32.2,23.3,20.4,82,63,52,29.91,29.82,15,2,22,0.00
2013-10-22,40.2,33.0,23.6,31.8,27.2,20.0,90,79,63,29.99,29.91,4,0,7,0.00
2013-10-23,37.6,34.4,32.5,31.2,25.7,19.5,89,71,55,30.06,29.94,13,1,20,0.02
2013-10-24,41.6,37.0,32.5,30.9,26.5,20.9,79,66,54,30.25,30.06,13,1,20,0.00
2013-10-25,57.3,44.9,29.3,41.9,33.7,25.4,87,66,51,30.26,29.70,12,1,20,0.00
2013-10-26,50.2,42.3,35.8,40.8,29.5,26.9,74,61,51,30.05,29.70,19,3,26,0.00
2013-10-27,55.1,41.5,31.0,34.4,29.3,25.6,83,64,39,30.11,29.74,10,0,16,0.00
2013-10-28,41.8,35.4,29.1,28.8,23.1,18.0,79,62,40,30.40,30.12,11,1,15,0.00
2013-10-29,39.1,35.8,29.3,35.2,28.0,22.6,91,73,65,30.37,30.03,6,1,12,0.10
2013-10-30,49.1,44.3,37.6,48.0,42.8,35.2,96,94,91,30.03,29.56,7,0,10,0.07
2013-10-31,49.1,42.9,39.9,48.0,40.9,36.8,96,93,86,29.56,29.33,11,2,15,0.06
2013-11-1,50.5,42.2,37.0,38.2,35.5,30.9,90,78,56,29.79,29.35,15,2,15,0.00
2013-11-2,48.6,38.3,30.6,35.5,29.9,26.9,89,73,49,30.04,29.79,11,1,16,0.00
2013-11-3,55.7,44.7,31.8,34.9,31.7,28.3,90,62,40,30.05,29.81,21,4,29,0.00
2013-11-4,48.5,43.9,32.8,43.9,36.2,29.4,90,75,56,30.08,29.75,19,3,27,0.12
2013-11-5,44.5,33.8,26.3,35.4,28.2,23.8,94,82,48,30.19,29.98,6,0,10,0.01
2013-11-6,37.0,32.5,29.0,31.3,27.2,23.7,94,81,64,30.11,29.98,12,1,16,0.27
2013-11-7,38.2,29.5,21.1,29.7,24.9,17.6,90,83,70,30.19,30.11,5,0,13,0.02
2013-11-8,45.1,34.3,21.4,37.8,26.5,18.4,91,75,52,30.16,29.52,15,2,24,0.01
2013-11-9,43.3,40.7,36.5,37.8,32.1,25.5,84,71,58,30.14,29.54,25,8,28,0.00
2013-11-10,43.9,37.7,30.4,30.6,27.8,23.3,77,68,54,30.27,30.04,15,2,23,0.00
2013-11-11,37.0,24.1,14.0,30.5,11.4,5.5,77,58,45,30.71,30.07,21,7,24,0.00
2013-11-12,31.0,20.3,11.1,12.8,7.9,4.5,75,60,35,30.77,30.41,11,2,12,0.00
2013-11-13,50.8,37.1,21.9,33.5,22.9,11.9,68,57,41,30.41,29.80,15,3,24,0.00
2013-11-14,53.9,41.5,32.8,37.8,32.7,28.5,85,71,51,29.79,29.68,7,0,9,0.00
2013-11-15,56.6,41.5,27.6,39.8,32.7,25.1,92,73,46,29.78,29.56,14,2,17,0.00
2013-11-16,48.9,44.9,42.1,47.4,41.1,34.2,95,87,68,29.55,29.15,14,2,15,0.04
2013-11-17,44.1,39.8,32.1,42.2,34.5,23.1,93,81,69,29.76,29.22,23,7,35,0.00
2013-11-18,34.3,28.9,19.4,23.8,19.2,14.8,83,67,56,30.23,29.76,25,7,29,0.00
2013-11-19,47.0,34.1,18.3,29.4,23.2,14.3,87,66,44,30.23,29.84,20,4,30,0.00
2013-11-20,44.5,42.0,37.5,33.7,28.7,24.4,86,60,47,29.97,29.81,13,4,19,0.00
2013-11-21,38.2,31.1,24.1,35.5,25.6,13.7,90,80,64,30.49,29.97,16,3,21,0.00
2013-11-22,34.3,22.9,12.1,14.1,8.2,1.3,78,56,27,30.61,30.41,24,5,25,0.00
2013-11-23,17.3,10.3,5.6,2.7,-1.0,-5.5,75,61,37,30.84,30.62,15,4,17,0.00
2013-11-24,31.0,20.0,5.0,15.2,7.5,-1.6,77,59,42,30.70,29.92,17,4,25,0.00
2013-11-25,37.8,33.1,28.4,27.2,22.3,15.1,79,64,54,30.03,29.84,22,5,27,0.00
2013-11-26,29.3,19.7,11.6,18.5,5.4,-0.5,69,53,42,30.37,30.03,24,8,33,0.00
2013-11-27,24.2,16.0,4.5,8.9,5.0,-0.9,82,63,47,30.38,30.04,7,1,15,0.00
2013-11-28,26.1,20.6,8.4,12.8,9.3,3.0,79,61,50,30.50,30.04,16,2,18,0.00
2013-11-29,31.6,22.4,6.1,20.1,12.9,1.2,83,68,51,30.50,30.10,14,2,21,0.00
2013-11-30,39.5,30.9,21.0,26.0,22.1,16.9,87,70,57,30.12,29.97,7,0,11,0.00
2013-12-1,34.9,24.9,14.8,25.1,18.8,10.9,88,78,62,30.16,29.88,4,0,7,0.00
2013-12-2,37.2,32.6,25.0,32.8,28.4,21.1,92,84,73,29.87,29.52,13,3,18,0.13
2013-12-3,35.0,34.0,31.3,33.2,32.1,29.2,94,93,90,29.74,29.52,11,2,14,0.05
2013-12-4,31.3,26.9,13.1,29.2,24.4,7.5,92,90,77,29.73,29.42,20,4,27,0.00
2013-12-5,13.1,5.2,-2.2,7.5,-2.4,-9.0,78,70,64,30.34,29.65,18,7,23,0.00
2013-12-6,3.0,-3.1,-8.4,-6.6,-10.8,-16.1,75,69,62,30.67,30.35,12,4,15,0.00
2013-12-7,1.5,-6.5,-12.5,-10.6,-14.6,-19.0,74,67,54,30.76,30.59,11,2,16,0.00
2013-12-8,12.1,5.7,-6.3,5.6,0.0,-12.4,82,77,73,30.59,30.02,8,0,10,0.00
2013-12-9,10.0,0.4,-4.3,5.6,-6.8,-12.3,82,71,60,30.12,29.88,15,4,20,0.00
2013-12-10,8.6,4.1,-0.4,2.0,-3.0,-6.7,80,72,61,30.29,29.77,13,4,21,0.00
2013-12-11,2.0,-3.9,-10.0,-7.0,-13.3,-18.5,68,63,54,30.58,30.30,13,4,19,0.00
2013-12-12,19.4,10.4,0.1,9.7,2.5,-7.2,79,70,58,30.32,30.13,8,0,10,0.00
2013-12-13,15.7,12.6,9.9,9.8,5.0,3.3,79,71,67,30.29,30.12,13,4,16,0.00
2013-12-14,14.1,8.9,-0.8,6.8,2.5,-8.7,80,75,69,30.28,30.08,14,3,19,0.00
2013-12-15,1.8,-0.4,-2.2,-8.7,-11.1,-13.4,70,60,50,30.17,30.10,10,3,15,0.00
2013-12-16,24.2,9.6,-0.2,20.4,2.7,-12.1,87,73,56,30.14,29.86,10,0,11,0.01
2013-12-17,31.8,21.3,3.0,26.4,14.4,-2.0,85,74,62,30.09,29.82,21,6,30,0.00
2013-12-18,34.1,22.3,3.2,24.4,15.4,-1.6,85,75,60,30.06,29.60,13,1,17,0.04
2013-12-19,25.4,17.0,14.6,19.5,9.8,5.8,84,73,64,30.06,29.76,12,2,15,0.00
2013-12-20,18.1,14.7,10.7,12.1,9.6,6.5,84,80,74,30.02,29.83,2,0,6,0.00
2013-12-21,21.8,17.9,14.0,13.8,11.7,8.7,81,77,69,29.98,29.83,7,0,11,0.00
2013-12-22,17.8,14.5,6.5,12.5,9.1,1.1,82,79,74,30.22,29.93,13,3,16,0.00
2013-12-23,6.3,-0.7,-8.2,0.9,-8.2,-16.5,78,70,64,30.53,30.22,12,5,15,0.00
2013-12-24,10.0,-0.9,-13.3,4.6,-8.8,-20.5,82,69,52,30.51,30.13,19,2,19,0.00
2013-12-25,24.2,15.8,8.8,19.4,10.3,3.9,85,79,68,30.13,30.02,12,2,19,0.00
2013-12-26,26.1,19.0,9.9,20.1,13.8,5.5,83,80,76,30.15,30.04,0,0,3,0.00
2013-12-27,40.1,26.6,6.9,29.5,21.5,2.6,90,82,64,30.14,29.84,11,1,20,0.16
2013-12-28,46.8,30.5,17.5,31.7,25.3,11.5,92,82,53,29.96,29.57,19,1,25,0.20
2013-12-29,16.9,-0.7,-13.8,10.9,-11.7,-23.1,77,59,44,30.33,29.98,21,7,28,0.00
2013-12-30,1.5,-5.3,-14.8,-5.9,-12.4,-23.5,75,70,62,30.33,30.21,4,0,7,0.00
2013-12-31,-2.6,-8.2,-13.8,-11.4,-15.8,-20.5,74,69,60,30.45,30.21,7,0,7,0.00
2014-1-1,0.1,-4.4,-9.6,-10.6,-14.4,-18.7,64,61,59,30.53,30.44,5,0,11,0.00
2014-1-2,1.7,-5.9,-12.5,-11.6,-17.3,-20.9,70,57,41,30.54,30.40,6,0,8,0.00